ADDS METAR Data INFO
IDs: Format: Raw Decoded Include TAF

Data at: 0345 UTC 18 Oct 2017

KTWM 180334Z AUTO 00000KT 10SM CLR 08/05 A2984 RMK AO2
KTWM 180314Z AUTO 00000KT 10SM CLR 08/05 A2984 RMK AO2
KTWM 180253Z AUTO 00000KT 10SM CLR 08/05 A2984 RMK AO2
KTWM 180234Z AUTO 00000KT 10SM CLR 08/06 A2985 RMK AO2
KTWM 180214Z AUTO 00000KT 10SM CLR 09/06 A2985 RMK AO2
KTWM 180153Z AUTO 00000KT 10SM CLR 09/06 A2985 RMK AO2
KTWM 180134Z AUTO 00000KT 10SM CLR 10/06 A2985 RMK AO2
KTWM 180114Z AUTO 00000KT 10SM CLR 11/06 A2985 RMK AO2
KTWM 180054Z AUTO 00000KT 10SM CLR 12/06 A2986 RMK AO2
KTWM 180034Z AUTO 00000KT 10SM CLR 13/07 A2986 RMK AO2
KTWM 180014Z AUTO 00000KT 10SM CLR 14/07 A2986 RMK AO2
KTWM 172354Z AUTO 00000KT 10SM CLR 16/07 A2986 RMK AO2
KTWM 172334Z AUTO 20004KT 10SM CLR 17/07 A2986 RMK AO2
KTWM 172313Z AUTO 19004KT 10SM CLR 17/07 A2986 RMK AO2
KTWM 172254Z AUTO 20004KT 10SM CLR 18/07 A2986 RMK AO2
KTWM 172234Z AUTO 20004KT 10SM CLR 19/07 A2986 RMK AO2
KTWM 172213Z AUTO 19005KT 10SM CLR 21/07 A2986 RMK AO2
KTWM 172154Z AUTO 18006KT 10SM CLR 21/07 A2987 RMK AO2
KTWM 172134Z AUTO 19009KT 10SM CLR 21/07 A2987 RMK AO2
KTWM 172113Z AUTO 18008KT 10SM CLR 21/07 A2987 RMK AO2
KTWM 172054Z AUTO 19009KT 10SM CLR 21/07 A2988 RMK AO2
KTWM 172034Z AUTO 18011G16KT 10SM CLR 22/07 A2988 RMK AO2
KTWM 172013Z AUTO 19008KT 10SM CLR 22/08 A2989 RMK AO2
KTWM 171954Z AUTO 18011KT 10SM CLR 22/08 A2989 RMK AO2
KTWM 171934Z AUTO 20011KT 10SM CLR 22/08 A2990 RMK AO2
KTWM 171913Z AUTO 20010G17KT 161V221 10SM CLR 22/08 A2991 RMK AO2
KTWM 171854Z AUTO 19012G15KT 7SM CLR 22/08 A2991 RMK AO2
KTWM 171834Z AUTO 19010KT 10SM CLR 22/07 A2992 RMK AO2
KTWM 171813Z AUTO 19007KT 10SM CLR 21/07 A2992 RMK AO2
KTWM 171754Z AUTO 19009KT 10SM CLR 22/07 A2993 RMK AO2
KTWM 171734Z AUTO 22009KT 10SM CLR 21/07 A2993 RMK AO2
KTWM 171713Z AUTO 21004KT 10SM CLR 19/08 A2994 RMK AO2
KTWM 171654Z AUTO 00000KT 10SM CLR 18/08 A2994 RMK AO2
KTWM 171634Z AUTO 22004KT 10SM CLR 17/08 A2995 RMK AO2
KTWM 171613Z AUTO 22005KT 10SM CLR 16/08 A2996 RMK AO2
KTWM 171554Z AUTO 20004KT 10SM CLR 15/08 A2996 RMK AO2
KTWM 171534Z AUTO 20004KT 10SM CLR 15/08 A2996 RMK AO2
KTWM 171513Z AUTO 00000KT 10SM CLR 13/07 A2996 RMK AO2
KTWM 171454Z AUTO 00000KT 10SM CLR 13/06 A2995 RMK AO2
KTWM 171434Z AUTO 00000KT 10SM CLR 12/06 A2995 RMK AO2
KTWM 171413Z AUTO 00000KT 10SM CLR 11/06 A2995 RMK AO2
KTWM 171354Z AUTO 00000KT 10SM CLR 09/05 A2995 RMK AO2
KTWM 171334Z AUTO 00000KT 10SM CLR 08/04 A2994 RMK AO2
KTWM 171313Z AUTO 00000KT 10SM CLR 08/04 A2994 RMK AO2
KTWM 171254Z AUTO 00000KT 10SM CLR 08/04 A2994 RMK AO2
KTWM 171234Z AUTO 00000KT 10SM CLR 08/04 A2994 RMK AO2
KTWM 171213Z AUTO 00000KT 10SM CLR 10/04 A2993 RMK AO2
KTWM 171154Z AUTO 29005KT 10SM CLR 10/04 A2992 RMK AO2
KTWM 171134Z AUTO 29005KT 10SM CLR 10/04 A2992 RMK AO2
KTWM 171114Z AUTO 30005KT 10SM CLR 10/04 A2992 RMK AO2
KTWM 171054Z AUTO 28004KT 10SM CLR 10/04 A2992 RMK AO2
KTWM 171034Z AUTO 30004KT 10SM CLR 09/04 A2991 RMK AO2
KTWM 171013Z AUTO 29004KT 10SM CLR 09/04 A2990 RMK AO2
KTWM 170954Z AUTO 28003KT 10SM CLR 10/04 A2990 RMK AO2
KTWM 170934Z AUTO 28004KT 10SM CLR 10/05 A2989 RMK AO2
KTWM 170914Z AUTO 28004KT 10SM CLR 11/05 A2989 RMK AO2
KTWM 170854Z AUTO 28004KT 10SM CLR 11/05 A2988 RMK AO2
KTWM 170834Z AUTO 28004KT 10SM CLR 11/05 A2988 RMK AO2
KTWM 170814Z AUTO 28004KT 10SM CLR 11/05 A2987 RMK AO2
KTWM 170754Z AUTO 29004KT 10SM CLR 11/05 A2988 RMK AO2
KTWM 170734Z AUTO 28004KT 10SM CLR 11/05 A2988 RMK AO2
KTWM 170714Z AUTO 28003KT 10SM CLR 11/05 A2988 RMK AO2
KTWM 170654Z AUTO 28004KT 10SM CLR 11/05 A2987 RMK AO2
KTWM 170634Z AUTO 27003KT 10SM CLR 11/05 A2987 RMK AO2
KTWM 170614Z AUTO 27003KT 10SM CLR 11/05 A2986 RMK AO2
KTWM 170554Z AUTO 26004KT 10SM CLR 11/04 A2985 RMK AO2
KTWM 170533Z AUTO 24004KT 10SM CLR 11/05 A2985 RMK AO2
KTWM 170514Z AUTO 25007KT 10SM CLR 12/05 A2985 RMK AO2
KTWM 170454Z AUTO 24005KT 10SM CLR 12/05 A2985 RMK AO2
KTWM 170433Z AUTO 24006KT 10SM CLR 12/05 A2985 RMK AO2
KTWM 170414Z AUTO 23007KT 10SM CLR 13/05 A2985 RMK AO2
KTWM 170354Z AUTO 24006KT 10SM CLR 13/05 A2985 RMK AO2
KTWM 170333Z AUTO 21008KT 10SM CLR 13/05 A2985 RMK AO2
KTWM 170314Z AUTO 23007KT 10SM CLR 13/04 A2985 RMK AO2
KTWM 170254Z AUTO 23006KT 10SM CLR 12/04 A2986 RMK AO2
KTWM 170233Z AUTO 23007KT 10SM CLR 12/04 A2987 RMK AO2
KTWM 170214Z AUTO 23006KT 10SM CLR 12/04 A2988 RMK AO2
KTWM 170154Z AUTO 22005KT 10SM CLR 12/04 A2988 RMK AO2
KTWM 170133Z AUTO 23006KT 10SM CLR 12/04 A2988 RMK AO2
KTWM 170114Z AUTO 23005KT 10SM CLR 12/04 A2989 RMK AO2
KTWM 170054Z AUTO 23006KT 10SM CLR 12/04 A2989 RMK AO2
KTWM 170033Z AUTO 22007KT 10SM CLR 13/04 A2989 RMK AO2
KTWM 170014Z AUTO 23007KT 10SM CLR 13/05 A2989 RMK AO2
KTWM 162354Z AUTO 21006KT 10SM CLR 13/06 A2989 RMK AO2
KTWM 162333Z AUTO 21008KT 10SM CLR 14/06 A2989 RMK AO2
KTWM 162314Z AUTO 21007KT 10SM CLR 14/06 A2990 RMK AO2
KTWM 162254Z AUTO 19008KT 10SM CLR 16/05 A2990 RMK AO2
KTWM 162233Z AUTO 21011G16KT 10SM CLR 16/05 A2991 RMK AO2
KTWM 162214Z AUTO 20011KT 10SM CLR 16/05 A2992 RMK AO2
KTWM 162153Z AUTO 20010G17KT 10SM CLR 16/05 A2992 RMK AO2
KTWM 162134Z AUTO 19010G18KT 10SM CLR 16/05 A2994 RMK AO2
KTWM 162114Z AUTO 21016G21KT 10SM CLR 17/06 A2995 RMK AO2
KTWM 162053Z AUTO 18013G16KT 10SM CLR 16/06 A2996 RMK AO2
KTWM 162034Z AUTO 19013G18KT 10SM CLR 17/06 A2997 RMK AO2
KTWM 162014Z AUTO 20009G16KT 10SM CLR 17/06 A2998 RMK AO2
KTWM 161953Z AUTO 19014KT 10SM CLR 17/06 A2999 RMK AO2
KTWM 161934Z AUTO 20010G18KT 10SM CLR 17/06 A3000 RMK AO2
KTWM 161914Z AUTO 20011G16KT 10SM CLR 16/06 A3001 RMK AO2
KTWM 161853Z AUTO 25008G15KT 16/05 A3003 RMK AO2 PWINO
KTWM 161834Z AUTO 23012G16KT 10SM CLR 16/06 A3003 RMK AO2
KTWM 161814Z AUTO 22014KT 10SM CLR 16/05 A3004 RMK AO2
KTWM 161754Z AUTO 24012G17KT 10SM CLR 16/04 A3005 RMK AO2
KTWM 161734Z AUTO 23010KT 10SM CLR 16/06 A3006 RMK AO2
KTWM 161714Z AUTO 27015G18KT 10SM CLR 15/04 A3007 RMK AO2
KTWM 161654Z AUTO 24016KT 10SM CLR 14/04 A3007 RMK AO2
KTWM 161634Z AUTO 23015G19KT 10SM CLR 14/04 A3008 RMK AO2
KTWM 161613Z AUTO 26012KT 10SM CLR 14/04 A3008 RMK AO2
KTWM 161554Z AUTO 26010G19KT 10SM CLR 13/04 A3009 RMK AO2